createdAt,value
2018-12-23T00:01:53.177Z,7.68
2018-12-23T00:04:21.649Z,7.73
2018-12-23T00:06:50.159Z,7.65
2018-12-23T00:09:18.734Z,7.66
2018-12-23T00:11:47.198Z,7.69
2018-12-23T00:14:16.423Z,7.74
2018-12-23T00:16:44.909Z,7.79
2018-12-23T00:19:13.399Z,7.88
2018-12-23T00:21:41.982Z,7.87
2018-12-23T00:24:10.421Z,7.88
2018-12-23T00:26:38.910Z,7.81
2018-12-23T00:29:07.382Z,7.81
2018-12-23T00:31:36.004Z,7.88
2018-12-23T00:34:04.488Z,7.89
2018-12-23T00:36:33.035Z,7.81
2018-12-23T00:39:01.780Z,7.75
2018-12-23T00:41:30.265Z,7.68
2018-12-23T00:43:58.725Z,7.65
2018-12-23T00:46:27.229Z,7.63
2018-12-23T00:48:55.753Z,7.64
2018-12-23T00:51:24.349Z,7.61
2018-12-23T00:53:53.202Z,7.52
2018-12-23T00:56:21.713Z,7.47
2018-12-23T00:58:50.217Z,7.39
2018-12-23T01:01:18.688Z,7.38
2018-12-23T01:03:47.246Z,7.38
2018-12-23T01:06:15.753Z,7.31
2018-12-23T01:08:44.657Z,7.37
2018-12-23T01:11:13.166Z,7.43
2018-12-23T01:13:41.629Z,7.40
2018-12-23T01:16:10.150Z,7.37
2018-12-23T01:18:38.598Z,7.42
2018-12-23T01:21:07.194Z,7.44
2018-12-23T01:23:35.693Z,7.38
2018-12-23T01:26:04.499Z,7.44
2018-12-23T01:28:33.546Z,7.40
2018-12-23T01:31:02.005Z,7.51
2018-12-23T01:33:30.483Z,7.44
2018-12-23T01:35:59.480Z,7.59
2018-12-23T01:38:28.005Z,7.63
2018-12-23T01:40:57.130Z,7.54
2018-12-23T01:43:25.590Z,7.60
2018-12-23T01:45:54.058Z,7.58
2018-12-23T01:48:22.714Z,7.63
2018-12-23T01:50:51.186Z,7.53
2018-12-23T01:53:19.658Z,7.53
2018-12-23T01:55:48.422Z,7.74
2018-12-23T01:58:16.870Z,7.72
2018-12-23T02:00:45.395Z,7.63
2018-12-23T02:03:13.850Z,7.68
2018-12-23T02:05:46.007Z,7.63
2018-12-23T02:08:12.805Z,7.69
2018-12-23T02:10:41.270Z,7.68
2018-12-23T02:13:09.762Z,7.54
2018-12-23T02:15:38.311Z,7.68
2018-12-23T02:18:06.774Z,7.63
2018-12-23T02:20:35.434Z,7.75
2018-12-23T02:23:03.930Z,7.57
2018-12-23T02:25:32.407Z,7.61
2018-12-23T02:28:00.854Z,7.60
2018-12-23T02:30:29.372Z,7.48
2018-12-23T02:32:58.961Z,7.49
2018-12-23T02:35:27.491Z,7.42
2018-12-23T02:37:56.048Z,7.39
2018-12-23T02:40:24.592Z,7.41
2018-12-23T02:42:53.165Z,7.37
2018-12-23T02:45:21.666Z,7.37
2018-12-23T02:47:50.165Z,7.37
2018-12-23T02:50:18.642Z,7.34
2018-12-23T02:52:47.078Z,7.27
2018-12-23T02:55:15.774Z,7.08
2018-12-23T02:57:44.338Z,7.17
2018-12-23T03:00:12.854Z,7.12
2018-12-23T03:02:41.294Z,7.08
2018-12-23T03:05:09.826Z,7.07
2018-12-23T03:07:38.321Z,6.98
2018-12-23T03:10:07.435Z,7.00
2018-12-23T03:12:35.926Z,6.94
2018-12-23T03:15:04.707Z,6.91
2018-12-23T03:17:33.198Z,6.82
2018-12-23T03:20:01.720Z,6.81
2018-12-23T03:22:30.163Z,6.79
2018-12-23T03:24:59.612Z,6.80
2018-12-23T03:27:28.062Z,6.77
2018-12-23T03:29:56.609Z,6.71
2018-12-23T03:32:25.089Z,6.72
2018-12-23T03:34:53.663Z,6.68
2018-12-23T03:37:22.204Z,6.69
2018-12-23T03:39:50.719Z,6.71
2018-12-23T03:42:19.274Z,6.69
2018-12-23T03:44:47.756Z,6.63
2018-12-23T03:47:16.270Z,6.67
2018-12-23T03:49:44.760Z,6.70
2018-12-23T03:52:13.237Z,6.67
2018-12-23T03:54:41.945Z,6.69
2018-12-23T03:57:10.421Z,6.70
2018-12-23T03:59:38.898Z,6.72
2018-12-23T04:02:07.329Z,6.74
2018-12-23T04:04:36.015Z,6.71
2018-12-23T04:07:04.674Z,6.72
2018-12-23T04:09:33.132Z,6.72
2018-12-23T04:12:02.410Z,6.67
2018-12-23T04:14:30.876Z,6.67
2018-12-23T04:16:59.333Z,6.75
2018-12-23T04:19:27.933Z,6.74
2018-12-23T04:21:57.048Z,6.77
2018-12-23T04:24:25.611Z,6.73
2018-12-23T04:26:54.077Z,6.73
2018-12-23T04:29:22.549Z,6.73
2018-12-23T04:31:51.014Z,6.72
2018-12-23T04:34:19.635Z,6.72
2018-12-23T04:36:48.106Z,6.77
2018-12-23T04:39:16.633Z,6.78
2018-12-23T04:41:45.087Z,6.97
2018-12-23T04:44:13.665Z,6.94
2018-12-23T04:46:42.157Z,6.95
2018-12-23T04:49:10.833Z,6.92
2018-12-23T04:51:39.637Z,6.95
2018-12-23T04:54:08.189Z,7.05
2018-12-23T04:56:36.761Z,6.98
2018-12-23T04:59:05.449Z,7.03
2018-12-23T05:01:33.930Z,7.03
2018-12-23T05:04:02.394Z,7.01
2018-12-23T05:06:31.025Z,7.02
2018-12-23T05:09:00.387Z,7.03
2018-12-23T05:11:29.108Z,7.09
2018-12-23T05:13:57.581Z,6.93
2018-12-23T05:16:26.022Z,7.01
2018-12-23T05:18:54.989Z,7.06
2018-12-23T05:21:23.429Z,7.08
2018-12-23T05:23:51.909Z,7.10
2018-12-23T05:26:20.521Z,7.04
2018-12-23T05:28:48.984Z,7.11
2018-12-23T05:31:17.534Z,7.04
2018-12-23T05:33:46.026Z,6.98
2018-12-23T05:36:14.483Z,6.93
2018-12-23T05:38:42.981Z,7.10
2018-12-23T05:41:11.438Z,7.07
2018-12-23T05:43:39.934Z,7.10
2018-12-23T05:46:09.155Z,7.01
2018-12-23T05:48:37.738Z,6.86
2018-12-23T05:51:06.223Z,6.78
2018-12-23T05:53:34.701Z,7.02
2018-12-23T05:56:03.272Z,6.97
2018-12-23T05:58:31.775Z,6.76
2018-12-23T06:01:00.310Z,6.90
2018-12-23T06:03:29.090Z,7.06
2018-12-23T06:05:57.571Z,6.89
2018-12-23T06:08:26.038Z,6.97
2018-12-23T06:10:55.114Z,7.06
2018-12-23T06:13:23.599Z,7.04
2018-12-23T06:15:52.083Z,7.06
2018-12-23T06:18:20.558Z,7.09
2018-12-23T06:20:49.061Z,6.92
2018-12-23T06:23:17.946Z,6.81
2018-12-23T06:25:46.410Z,6.98
2018-12-23T06:28:14.964Z,7.04
2018-12-23T06:30:43.402Z,7.05
2018-12-23T06:33:11.929Z,7.06
2018-12-23T06:35:40.414Z,6.96
2018-12-23T06:38:08.915Z,7.10
2018-12-23T06:40:37.544Z,7.04
2018-12-23T06:43:06.074Z,7.10
2018-12-23T06:45:34.567Z,7.05
2018-12-23T06:48:03.122Z,7.15
2018-12-23T06:50:31.598Z,7.16
2018-12-23T06:53:00.114Z,7.13
2018-12-23T06:55:28.593Z,7.16
2018-12-23T06:57:57.164Z,7.18
2018-12-23T07:00:25.670Z,7.20
2018-12-23T07:02:54.125Z,7.19
2018-12-23T07:05:22.558Z,7.12
2018-12-23T07:07:51.022Z,7.25
2018-12-23T07:10:19.512Z,7.19
2018-12-23T07:12:48.118Z,7.18
2018-12-23T07:15:16.674Z,7.26
2018-12-23T07:17:46.124Z,7.26
2018-12-23T07:20:14.782Z,7.27
2018-12-23T07:22:43.242Z,7.29
2018-12-23T07:25:11.764Z,7.21
2018-12-23T07:27:40.263Z,7.23
2018-12-23T07:30:08.948Z,7.27
2018-12-23T07:32:37.473Z,7.24
2018-12-23T07:35:06.148Z,7.35
2018-12-23T07:37:34.631Z,7.34
2018-12-23T07:40:03.999Z,7.28
2018-12-23T07:42:32.454Z,7.29
2018-12-23T07:45:00.907Z,7.28
2018-12-23T07:47:29.409Z,7.27
2018-12-23T07:49:59.290Z,7.31
2018-12-23T07:52:27.749Z,7.36
2018-12-23T07:54:56.286Z,7.38
2018-12-23T07:57:24.822Z,7.36
2018-12-23T07:59:53.426Z,7.42
2018-12-23T08:02:22.202Z,7.48
2018-12-23T08:04:50.663Z,7.44
2018-12-23T08:07:20.539Z,7.44
2018-12-23T08:09:49.034Z,7.49
2018-12-23T08:12:17.590Z,7.44
2018-12-23T08:14:46.059Z,7.49
2018-12-23T08:17:14.537Z,7.53
2018-12-23T08:19:43.081Z,7.55
2018-12-23T08:22:11.597Z,7.47
2018-12-23T08:24:40.726Z,7.51
2018-12-23T08:27:09.334Z,7.55
2018-12-23T08:29:37.913Z,7.61
2018-12-23T08:32:06.391Z,7.58
2018-12-23T08:34:34.842Z,7.62
2018-12-23T08:37:03.411Z,7.69
2018-12-23T08:39:31.965Z,7.71
2018-12-23T08:42:00.590Z,7.64
2018-12-23T08:44:29.051Z,7.71
2018-12-23T08:46:57.587Z,7.75
2018-12-23T08:49:26.454Z,7.88
2018-12-23T08:51:55.010Z,7.87
2018-12-23T08:54:23.515Z,7.85
2018-12-23T08:56:52.154Z,7.83
2018-12-23T08:59:20.703Z,7.92
2018-12-23T09:01:49.202Z,7.88
2018-12-23T09:04:17.850Z,7.91
2018-12-23T09:06:46.376Z,7.90
2018-12-23T09:09:15.259Z,8.01
2018-12-23T09:11:43.767Z,7.97
2018-12-23T09:14:12.265Z,7.95
2018-12-23T09:16:40.841Z,8.00
2018-12-23T09:19:09.404Z,8.06
2018-12-23T09:21:38.476Z,8.07
2018-12-23T09:24:06.995Z,8.09
2018-12-23T09:26:35.557Z,8.09
2018-12-23T09:29:04.065Z,8.13
2018-12-23T09:31:32.587Z,8.14
2018-12-23T09:34:01.771Z,8.16
2018-12-23T09:36:30.221Z,8.22
2018-12-23T09:38:58.734Z,8.19
2018-12-23T09:41:27.346Z,8.28
2018-12-23T09:43:55.801Z,8.26
2018-12-23T09:46:24.273Z,8.28
2018-12-23T09:48:52.806Z,8.32
2018-12-23T09:51:21.322Z,8.36
2018-12-23T09:53:49.790Z,8.36
2018-12-23T09:56:18.870Z,8.38
2018-12-23T09:58:47.378Z,8.41
2018-12-23T10:01:15.938Z,8.49
2018-12-23T10:03:44.480Z,8.46
2018-12-23T10:06:13.070Z,8.45
2018-12-23T10:08:41.682Z,8.47
2018-12-23T10:11:10.494Z,8.51
2018-12-23T10:13:39.618Z,8.34
2018-12-23T10:16:08.175Z,8.29
2018-12-23T10:18:36.725Z,8.35
2018-12-23T10:21:05.204Z,8.26
2018-12-23T10:23:33.703Z,8.41
2018-12-23T10:26:02.273Z,8.40
2018-12-23T10:28:30.802Z,8.38
2018-12-23T10:30:59.979Z,8.34
2018-12-23T10:33:28.439Z,8.34
2018-12-23T10:35:57.054Z,8.46
2018-12-23T10:38:25.530Z,8.44
2018-12-23T10:40:54.691Z,8.50
2018-12-23T10:43:23.285Z,8.53
2018-12-23T10:45:51.880Z,8.57
2018-12-23T10:48:20.490Z,8.58
2018-12-23T10:50:49.034Z,8.71
2018-12-23T10:53:17.507Z,8.72
2018-12-23T10:55:46.052Z,8.79
2018-12-23T10:58:14.539Z,8.83
2018-12-23T11:00:43.007Z,8.86
2018-12-23T11:03:11.583Z,8.88
2018-12-23T11:05:40.847Z,8.86
2018-12-23T11:08:09.420Z,8.85
2018-12-23T11:10:37.957Z,8.82
2018-12-23T11:13:06.433Z,8.84
2018-12-23T11:15:34.894Z,8.96
2018-12-23T11:18:03.606Z,8.97
2018-12-23T11:20:32.266Z,9.01
2018-12-23T11:23:02.268Z,9.00
2018-12-23T11:25:30.858Z,9.04
2018-12-23T11:27:59.591Z,8.98
2018-12-23T11:30:28.164Z,8.86
2018-12-23T11:32:56.662Z,8.91
2018-12-23T11:35:25.150Z,8.99
2018-12-23T11:37:54.150Z,9.00
2018-12-23T11:40:22.648Z,8.96
2018-12-23T11:42:51.558Z,9.06
2018-12-23T11:45:20.177Z,9.00
2018-12-23T11:47:48.726Z,9.04
2018-12-23T11:50:17.388Z,9.01
2018-12-23T11:52:45.909Z,9.10
2018-12-23T11:55:14.470Z,9.14
2018-12-23T11:57:42.989Z,9.11
2018-12-23T12:00:11.959Z,9.07
2018-12-23T12:02:41.041Z,9.09
2018-12-23T12:05:09.636Z,9.12
2018-12-23T12:07:38.136Z,9.00
2018-12-23T12:10:07.570Z,8.94
2018-12-23T12:12:36.127Z,8.94
2018-12-23T12:15:05.054Z,8.94
2018-12-23T12:17:33.582Z,8.97
2018-12-23T12:20:02.661Z,8.91
2018-12-23T12:22:31.145Z,8.97
2018-12-23T12:24:59.781Z,8.98
2018-12-23T12:27:29.268Z,8.93
2018-12-23T12:29:57.777Z,9.03
2018-12-23T12:32:26.282Z,9.01
2018-12-23T12:34:54.786Z,9.05
2018-12-23T12:37:23.254Z,9.16
2018-12-23T12:39:51.707Z,9.06
2018-12-23T12:42:20.170Z,9.18
2018-12-23T12:44:48.630Z,9.07
2018-12-23T12:47:17.190Z,9.01
2018-12-23T12:49:45.666Z,9.00
2018-12-23T12:52:14.203Z,8.93
2018-12-23T12:54:42.704Z,9.00
2018-12-23T12:57:11.182Z,9.02
2018-12-23T12:59:39.743Z,9.00
2018-12-23T13:02:08.225Z,8.92
2018-12-23T13:04:36.729Z,8.95
2018-12-23T13:07:05.318Z,8.98
2018-12-23T13:09:34.495Z,8.95
2018-12-23T13:12:03.694Z,8.97
2018-12-23T13:14:32.171Z,8.97
2018-12-23T13:17:00.958Z,9.00
2018-12-23T13:19:29.450Z,8.96
2018-12-23T13:22:02.500Z,9.07
2018-12-23T13:24:31.188Z,8.90
2018-12-23T13:26:59.751Z,8.89
2018-12-23T13:29:28.554Z,8.88
2018-12-23T13:31:57.202Z,8.85
2018-12-23T13:34:26.286Z,8.84
2018-12-23T13:36:55.263Z,8.84
2018-12-23T13:39:23.889Z,8.67
2018-12-23T13:43:01.872Z,8.84
2018-12-23T13:46:26.431Z,8.63
2018-12-23T13:49:08.738Z,8.63
2018-12-23T13:52:03.499Z,8.53
2018-12-23T13:57:18.088Z,8.67
2018-12-23T13:59:58.780Z,8.34
2018-12-23T14:02:51.918Z,8.40
2018-12-23T14:07:05.750Z,8.25
2018-12-23T14:11:52.176Z,8.24
2018-12-23T14:14:20.628Z,8.17
2018-12-23T14:16:49.258Z,8.08
2018-12-23T14:19:17.730Z,8.05
2018-12-23T14:21:46.884Z,7.97
2018-12-23T14:24:15.425Z,7.96
2018-12-23T14:26:43.971Z,7.95
2018-12-23T14:29:12.594Z,7.93
2018-12-23T14:31:41.853Z,7.89
2018-12-23T14:34:10.883Z,8.00
2018-12-23T14:36:39.630Z,8.01
2018-12-23T14:39:09.486Z,7.86
2018-12-23T14:41:38.366Z,7.82
2018-12-23T14:44:06.886Z,7.76
2018-12-23T14:46:35.397Z,7.80
2018-12-23T14:49:03.947Z,7.98
2018-12-23T14:51:32.509Z,8.15
2018-12-23T14:54:01.258Z,7.89
2018-12-23T14:56:29.975Z,7.90
2018-12-23T14:58:59.088Z,7.98
2018-12-23T15:01:27.617Z,7.90
2018-12-23T15:03:56.183Z,7.90
2018-12-23T15:06:24.809Z,7.73
2018-12-23T15:08:54.013Z,7.90
2018-12-23T15:11:22.584Z,7.93
2018-12-23T15:13:51.826Z,7.85
2018-12-23T15:16:20.417Z,7.73
2018-12-23T15:18:50.504Z,8.03
2018-12-23T15:21:19.097Z,7.94
2018-12-23T15:23:49.190Z,7.85
2018-12-23T15:26:17.994Z,7.66
2018-12-23T15:28:46.713Z,7.75
2018-12-23T15:31:15.278Z,7.53
2018-12-23T15:33:43.785Z,7.65
2018-12-23T15:36:12.313Z,7.58
2018-12-23T15:38:41.766Z,7.52
2018-12-23T15:41:10.525Z,7.51
2018-12-23T15:43:39.043Z,7.59
2018-12-23T15:46:07.611Z,7.52
2018-12-23T15:48:36.135Z,7.37
2018-12-23T15:51:04.798Z,7.49
2018-12-23T15:53:33.413Z,7.65
2018-12-23T15:56:01.954Z,7.29
2018-12-23T15:58:31.461Z,7.39
2018-12-23T16:00:59.939Z,7.30
2018-12-23T16:03:28.443Z,7.46
2018-12-23T16:05:56.930Z,7.56
2018-12-23T16:08:25.471Z,7.56
2018-12-23T16:10:54.016Z,7.56
2018-12-23T16:13:22.782Z,7.71
2018-12-23T16:15:51.290Z,7.44
2018-12-23T16:18:19.798Z,7.56
2018-12-23T16:20:48.498Z,7.46
2018-12-23T16:23:17.815Z,7.45
2018-12-23T16:25:46.301Z,7.32
2018-12-23T16:28:15.094Z,7.29
2018-12-23T16:30:43.903Z,7.32
2018-12-23T16:33:12.374Z,7.36
2018-12-23T16:35:40.870Z,7.28
2018-12-23T16:38:09.557Z,7.33
2018-12-23T16:40:38.147Z,7.18
2018-12-23T16:43:06.655Z,7.35
2018-12-23T16:45:36.010Z,7.22
2018-12-23T16:48:04.611Z,7.14
2018-12-23T16:50:33.196Z,7.23
2018-12-23T16:53:01.742Z,7.12
2018-12-23T16:55:30.284Z,7.19
2018-12-23T16:57:58.866Z,6.98
2018-12-23T17:00:27.446Z,6.97
2018-12-23T17:02:55.931Z,6.81
2018-12-23T17:05:24.619Z,7.09
2018-12-23T17:07:53.466Z,7.01
2018-12-23T17:10:23.045Z,6.92
2018-12-23T17:12:51.658Z,6.93
2018-12-23T17:15:21.885Z,6.92
2018-12-23T17:17:51.101Z,7.01
2018-12-23T17:20:19.706Z,6.98
2018-12-23T17:22:48.221Z,6.99
2018-12-23T17:25:17.166Z,6.93
2018-12-23T17:27:45.709Z,6.83
2018-12-23T17:30:14.376Z,6.69
2018-12-23T17:32:42.850Z,6.92
2018-12-23T17:35:13.485Z,6.73
2018-12-23T17:37:41.869Z,6.59
2018-12-23T17:40:16.468Z,6.61
2018-12-23T17:42:41.577Z,6.62
2018-12-23T17:45:10.098Z,6.72
2018-12-23T17:47:38.627Z,6.69
2018-12-23T17:50:08.430Z,6.64
2018-12-23T17:52:37.773Z,6.59
2018-12-23T17:55:06.674Z,6.62
2018-12-23T17:57:35.168Z,6.73
2018-12-23T18:00:04.781Z,6.72
2018-12-23T18:02:33.314Z,6.70
2018-12-23T18:05:01.892Z,6.66
2018-12-23T18:07:30.679Z,6.71
2018-12-23T18:09:59.303Z,6.75
2018-12-23T18:12:27.890Z,6.71
2018-12-23T18:14:56.532Z,6.67
2018-12-23T18:17:25.866Z,6.53
2018-12-23T18:19:54.453Z,6.66
2018-12-23T18:22:23.019Z,6.56
2018-12-23T18:24:51.509Z,6.92
2018-12-23T18:28:10.561Z,6.79
2018-12-23T18:30:39.859Z,6.78
2018-12-23T18:33:09.078Z,6.66
2018-12-23T18:35:38.576Z,6.76
2018-12-23T18:38:07.844Z,6.76
2018-12-23T18:40:37.174Z,6.75
2018-12-23T18:43:06.433Z,6.61
2018-12-23T18:45:35.689Z,6.59
2018-12-23T18:48:04.983Z,6.67
2018-12-23T18:50:34.381Z,6.72
2018-12-23T18:53:03.660Z,6.67
2018-12-23T18:55:37.166Z,6.67
2018-12-23T18:58:06.750Z,6.58
2018-12-23T19:00:36.168Z,6.68
2018-12-23T19:03:06.128Z,6.68
2018-12-23T19:05:35.515Z,6.60
2018-12-23T19:08:09.344Z,6.73
2018-12-23T19:11:40.841Z,6.79
2018-12-23T19:14:53.612Z,6.80
2018-12-23T19:18:05.774Z,6.80
2018-12-23T19:21:17.670Z,6.80
2018-12-23T19:24:18.241Z,6.92
2018-12-23T19:27:26.592Z,6.91
2018-12-23T19:30:24.005Z,6.87
2018-12-23T19:33:23.177Z,6.81
2018-12-23T19:36:41.849Z,7.01
2018-12-23T19:39:56.924Z,6.84
2018-12-23T19:43:08.765Z,6.91
2018-12-23T19:46:15.909Z,6.92
2018-12-23T19:49:18.880Z,6.87
2018-12-23T19:52:31.050Z,6.94
2018-12-23T19:55:56.335Z,6.90
2018-12-23T19:59:02.770Z,6.95
2018-12-23T20:02:15.101Z,7.01
2018-12-23T20:05:26.394Z,6.89
2018-12-23T20:08:35.858Z,7.06
2018-12-23T20:11:51.970Z,6.97
2018-12-23T20:14:50.613Z,7.14
2018-12-23T20:17:55.510Z,7.14
2018-12-23T20:21:00.618Z,7.21
2018-12-23T20:24:32.180Z,7.07
2018-12-23T20:27:45.360Z,7.11
2018-12-23T20:30:58.280Z,7.31
2018-12-23T20:33:45.298Z,7.33
2018-12-23T20:37:10.784Z,7.53
2018-12-23T20:40:22.886Z,7.61
2018-12-23T20:43:40.772Z,7.80
2018-12-23T20:46:53.964Z,7.70
2018-12-23T20:49:42.228Z,7.77
2018-12-23T20:53:01.477Z,7.87
2018-12-23T20:56:42.208Z,7.92
2018-12-23T20:59:59.405Z,7.89
2018-12-23T21:03:35.570Z,8.02
2018-12-23T21:06:55.274Z,8.09
2018-12-23T21:10:00.647Z,8.24
2018-12-23T21:12:53.594Z,8.32
2018-12-23T21:15:56.537Z,8.38
2018-12-23T21:19:00.993Z,8.45
2018-12-23T21:22:29.370Z,8.56
2018-12-23T21:25:24.585Z,8.62
2018-12-23T21:28:39.254Z,8.79
2018-12-23T21:31:52.539Z,8.89
2018-12-23T21:35:12.094Z,9.02
2018-12-23T21:38:11.986Z,9.11
2018-12-23T21:41:02.696Z,9.31
2018-12-23T21:44:08.841Z,9.36
2018-12-23T21:47:24.898Z,9.44
2018-12-23T21:50:24.412Z,9.56
2018-12-23T21:53:28.585Z,9.62
2018-12-23T21:56:53.253Z,9.70
2018-12-23T22:00:01.563Z,9.83
2018-12-23T22:03:05.138Z,9.89
2018-12-23T22:06:10.158Z,9.96
2018-12-23T22:09:10.973Z,10.07
2018-12-23T22:12:15.661Z,10.11
2018-12-23T22:14:44.978Z,10.18
2018-12-23T22:17:14.231Z,10.30
2018-12-23T22:19:43.616Z,10.36
2018-12-23T22:22:13.089Z,10.41
2018-12-23T22:24:42.412Z,10.48
2018-12-23T22:27:11.807Z,10.52
2018-12-23T22:29:41.154Z,10.51
2018-12-23T22:32:32.263Z,10.53
2018-12-23T22:35:02.751Z,10.58
2018-12-23T22:37:32.184Z,10.61
2018-12-23T22:40:01.450Z,10.66
2018-12-23T22:42:30.720Z,10.66
2018-12-23T22:45:00.026Z,10.67
2018-12-23T22:47:29.686Z,10.71
2018-12-23T22:49:59.087Z,10.74
2018-12-23T22:52:28.329Z,10.77
2018-12-23T22:54:57.639Z,10.74
2018-12-23T22:57:26.899Z,10.70
2018-12-23T22:59:56.203Z,10.68
2018-12-23T23:02:25.484Z,10.63
2018-12-23T23:04:54.784Z,10.60
2018-12-23T23:07:26.963Z,10.59
2018-12-23T23:09:56.259Z,10.60
2018-12-23T23:12:25.541Z,10.61
2018-12-23T23:14:54.804Z,10.59
2018-12-23T23:17:24.112Z,10.59
2018-12-23T23:19:53.385Z,10.57
2018-12-23T23:22:22.654Z,10.59
2018-12-23T23:24:51.902Z,10.59
2018-12-23T23:27:22.672Z,10.59
2018-12-23T23:29:51.970Z,10.60
2018-12-23T23:32:21.270Z,10.58
2018-12-23T23:34:50.535Z,10.60
2018-12-23T23:37:19.788Z,10.61
2018-12-23T23:39:49.059Z,10.61
2018-12-23T23:42:18.303Z,10.60
2018-12-23T23:44:47.572Z,10.59
2018-12-23T23:47:16.879Z,10.61
2018-12-23T23:49:46.158Z,10.62
2018-12-23T23:52:15.403Z,10.64
2018-12-23T23:54:44.684Z,10.60
2018-12-23T23:57:13.981Z,10.62
2018-12-23T23:59:43.225Z,10.59
